sensor_id;sensor_type;location;lat;lon;timestamp;temperature;humidity
9329;DHT22;4703;48.748;19.142;2023-02-03T00:01:55;1.70;92.50
9329;DHT22;4703;48.748;19.142;2023-02-03T00:04:22;1.80;92.20
9329;DHT22;4703;48.748;19.142;2023-02-03T00:06:49;1.80;91.80
9329;DHT22;4703;48.748;19.142;2023-02-03T00:09:17;1.80;91.70
9329;DHT22;4703;48.748;19.142;2023-02-03T00:11:44;1.80;91.60
9329;DHT22;4703;48.748;19.142;2023-02-03T00:14:11;1.80;91.70
9329;DHT22;4703;48.748;19.142;2023-02-03T00:16:38;1.80;91.70
9329;DHT22;4703;48.748;19.142;2023-02-03T00:19:05;4.10;93.10
9329;DHT22;4703;48.748;19.142;2023-02-03T00:21:32;1.80;92.70
9329;DHT22;4703;48.748;19.142;2023-02-03T00:23:59;1.80;93.00
9329;DHT22;4703;48.748;19.142;2023-02-03T00:26:25;1.70;93.10
9329;DHT22;4703;48.748;19.142;2023-02-03T00:28:54;1.70;92.80
9329;DHT22;4703;48.748;19.142;2023-02-03T00:31:23;1.70;92.30
9329;DHT22;4703;48.748;19.142;2023-02-03T00:33:55;1.60;92.10
9329;DHT22;4703;48.748;19.142;2023-02-03T00:36:24;1.70;91.70
9329;DHT22;4703;48.748;19.142;2023-02-03T00:38:51;1.70;91.90
9329;DHT22;4703;48.748;19.142;2023-02-03T00:41:20;5.20;93.50
9329;DHT22;4703;48.748;19.142;2023-02-03T00:43:47;1.80;92.00
9329;DHT22;4703;48.748;19.142;2023-02-03T00:46:15;1.70;92.40
9329;DHT22;4703;48.748;19.142;2023-02-03T00:48:42;1.70;91.90
9329;DHT22;4703;48.748;19.142;2023-02-03T00:51:09;1.70;92.10
9329;DHT22;4703;48.748;19.142;2023-02-03T00:53:36;1.60;92.40
9329;DHT22;4703;48.748;19.142;2023-02-03T00:56:03;1.60;92.50
9329;DHT22;4703;48.748;19.142;2023-02-03T00:58:41;1.60;92.20
9329;DHT22;4703;48.748;19.142;2023-02-03T01:01:08;1.70;92.70
9329;DHT22;4703;48.748;19.142;2023-02-03T01:03:35;1.60;92.80
9329;DHT22;4703;48.748;19.142;2023-02-03T01:06:15;1.60;92.40
9329;DHT22;4703;48.748;19.142;2023-02-03T01:08:43;1.60;91.90
9329;DHT22;4703;48.748;19.142;2023-02-03T01:11:13;1.60;92.20
9329;DHT22;4703;48.748;19.142;2023-02-03T01:13:43;1.60;92.30
9329;DHT22;4703;48.748;19.142;2023-02-03T01:16:12;1.60;91.50
9329;DHT22;4703;48.748;19.142;2023-02-03T01:18:44;1.50;91.50
9329;DHT22;4703;48.748;19.142;2023-02-03T01:21:14;1.60;91.70
9329;DHT22;4703;48.748;19.142;2023-02-03T01:23:45;1.50;92.00
9329;DHT22;4703;48.748;19.142;2023-02-03T01:26:16;1.40;91.50
9329;DHT22;4703;48.748;19.142;2023-02-03T01:28:53;1.40;91.50
9329;DHT22;4703;48.748;19.142;2023-02-03T01:31:26;1.40;91.50
9329;DHT22;4703;48.748;19.142;2023-02-03T01:34:02;1.30;91.80
9329;DHT22;4703;48.748;19.142;2023-02-03T01:36:31;1.40;91.80
9329;DHT22;4703;48.748;19.142;2023-02-03T01:38:59;1.40;91.80
9329;DHT22;4703;48.748;19.142;2023-02-03T01:41:30;1.30;92.30
9329;DHT22;4703;48.748;19.142;2023-02-03T01:43:59;1.30;91.90
9329;DHT22;4703;48.748;19.142;2023-02-03T01:46:36;1.30;92.30
9329;DHT22;4703;48.748;19.142;2023-02-03T01:51:46;1.30;92.40
9329;DHT22;4703;48.748;19.142;2023-02-03T01:54:17;4.20;93.50
9329;DHT22;4703;48.748;19.142;2023-02-03T01:56:55;1.30;91.90
9329;DHT22;4703;48.748;19.142;2023-02-03T01:59:27;1.30;92.00
9329;DHT22;4703;48.748;19.142;2023-02-03T02:01:56;1.20;91.90
9329;DHT22;4703;48.748;19.142;2023-02-03T02:04:28;1.30;91.70
9329;DHT22;4703;48.748;19.142;2023-02-03T02:07:00;1.20;91.90
9329;DHT22;4703;48.748;19.142;2023-02-03T02:09:27;1.20;92.60
9329;DHT22;4703;48.748;19.142;2023-02-03T02:11:55;1.10;92.80
9329;DHT22;4703;48.748;19.142;2023-02-03T02:14:21;1.10;92.90
9329;DHT22;4703;48.748;19.142;2023-02-03T02:16:59;1.10;93.00
9329;DHT22;4703;48.748;19.142;2023-02-03T02:19:42;1.00;92.60
9329;DHT22;4703;48.748;19.142;2023-02-03T02:37:06;0.90;94.10
9329;DHT22;4703;48.748;19.142;2023-02-03T02:39:57;0.70;94.70
9329;DHT22;4703;48.748;19.142;2023-02-03T02:42:34;0.60;95.00
9329;DHT22;4703;48.748;19.142;2023-02-03T02:45:23;0.60;95.10
9329;DHT22;4703;48.748;19.142;2023-02-03T02:47:56;1.30;95.40
9329;DHT22;4703;48.748;19.142;2023-02-03T02:50:30;0.60;95.30
9329;DHT22;4703;48.748;19.142;2023-02-03T02:53:01;0.60;95.30
9329;DHT22;4703;48.748;19.142;2023-02-03T02:55:31;0.60;95.40
9329;DHT22;4703;48.748;19.142;2023-02-03T02:58:04;0.40;95.60
9329;DHT22;4703;48.748;19.142;2023-02-03T03:00:34;0.50;96.10
9329;DHT22;4703;48.748;19.142;2023-02-03T03:03:19;0.40;96.20
9329;DHT22;4703;48.748;19.142;2023-02-03T03:05:56;0.50;96.00
9329;DHT22;4703;48.748;19.142;2023-02-03T03:11:54;0.50;96.20
9329;DHT22;4703;48.748;19.142;2023-02-03T03:14:26;0.50;96.60
9329;DHT22;4703;48.748;19.142;2023-02-03T03:17:00;0.30;96.50
9329;DHT22;4703;48.748;19.142;2023-02-03T03:19:34;0.30;96.70
9329;DHT22;4703;48.748;19.142;2023-02-03T03:22:06;0.30;96.70
9329;DHT22;4703;48.748;19.142;2023-02-03T03:24:41;0.20;96.70
9329;DHT22;4703;48.748;19.142;2023-02-03T03:27:24;0.20;96.90
9329;DHT22;4703;48.748;19.142;2023-02-03T03:30:01;0.20;97.20
9329;DHT22;4703;48.748;19.142;2023-02-03T03:32:32;0.20;97.00
9329;DHT22;4703;48.748;19.142;2023-02-03T03:35:00;0.10;97.20
9329;DHT22;4703;48.748;19.142;2023-02-03T03:37:40;0.00;97.40
9329;DHT22;4703;48.748;19.142;2023-02-03T03:40:27;0.00;97.80
9329;DHT22;4703;48.748;19.142;2023-02-03T03:45:45;0.00;97.70
9329;DHT22;4703;48.748;19.142;2023-02-03T03:48:32;0.00;97.80
9329;DHT22;4703;48.748;19.142;2023-02-03T03:51:07;0.00;97.90
9329;DHT22;4703;48.748;19.142;2023-02-03T03:53:40;-0.10;98.30
9329;DHT22;4703;48.748;19.142;2023-02-03T03:56:11;-0.10;98.40
9329;DHT22;4703;48.748;19.142;2023-02-03T03:58:45;-0.20;98.20
9329;DHT22;4703;48.748;19.142;2023-02-03T04:01:15;-0.20;98.20
9329;DHT22;4703;48.748;19.142;2023-02-03T04:03:53;-0.20;98.20
9329;DHT22;4703;48.748;19.142;2023-02-03T04:06:22;-0.30;98.30
9329;DHT22;4703;48.748;19.142;2023-02-03T04:08:49;-0.40;98.80
9329;DHT22;4703;48.748;19.142;2023-02-03T04:11:16;-0.40;98.80
9329;DHT22;4703;48.748;19.142;2023-02-03T04:14:03;-0.10;99.00
9329;DHT22;4703;48.748;19.142;2023-02-03T04:16:30;-0.30;98.90
9329;DHT22;4703;48.748;19.142;2023-02-03T04:18:57;-0.40;99.10
9329;DHT22;4703;48.748;19.142;2023-02-03T04:21:24;-0.30;99.10
9329;DHT22;4703;48.748;19.142;2023-02-03T04:23:51;-0.40;99.10
9329;DHT22;4703;48.748;19.142;2023-02-03T04:26:18;-0.40;99.30
9329;DHT22;4703;48.748;19.142;2023-02-03T04:28:45;-0.50;99.30
9329;DHT22;4703;48.748;19.142;2023-02-03T04:31:12;-0.50;99.90
9329;DHT22;4703;48.748;19.142;2023-02-03T04:33:39;-0.40;99.70
9329;DHT22;4703;48.748;19.142;2023-02-03T04:36:07;-0.40;99.80
9329;DHT22;4703;48.748;19.142;2023-02-03T04:38:34;-0.40;99.90
9329;DHT22;4703;48.748;19.142;2023-02-03T04:41:01;-0.40;99.90
9329;DHT22;4703;48.748;19.142;2023-02-03T04:43:28;-0.50;99.90
9329;DHT22;4703;48.748;19.142;2023-02-03T04:45:57;-0.50;99.90
9329;DHT22;4703;48.748;19.142;2023-02-03T04:48:26;-0.50;99.90
9329;DHT22;4703;48.748;19.142;2023-02-03T04:50:53;-0.50;99.90
9329;DHT22;4703;48.748;19.142;2023-02-03T04:53:20;-0.50;99.90
9329;DHT22;4703;48.748;19.142;2023-02-03T04:55:47;-0.60;99.90
9329;DHT22;4703;48.748;19.142;2023-02-03T04:58:14;-0.50;99.90
9329;DHT22;4703;48.748;19.142;2023-02-03T05:00:41;-0.50;99.90
9329;DHT22;4703;48.748;19.142;2023-02-03T05:03:08;2.00;99.90
9329;DHT22;4703;48.748;19.142;2023-02-03T05:05:35;-0.50;99.90
9329;DHT22;4703;48.748;19.142;2023-02-03T05:08:02;-0.40;99.90
9329;DHT22;4703;48.748;19.142;2023-02-03T05:10:29;-0.40;99.90
9329;DHT22;4703;48.748;19.142;2023-02-03T05:12:56;-0.40;99.90
9329;DHT22;4703;48.748;19.142;2023-02-03T05:15:23;-0.30;99.80
9329;DHT22;4703;48.748;19.142;2023-02-03T05:17:52;1.90;99.90
9329;DHT22;4703;48.748;19.142;2023-02-03T05:20:20;-0.30;99.70
9329;DHT22;4703;48.748;19.142;2023-02-03T05:22:47;-0.20;99.80
9329;DHT22;4703;48.748;19.142;2023-02-03T05:25:14;-0.40;99.90
9329;DHT22;4703;48.748;19.142;2023-02-03T05:27:41;-0.30;99.90
9329;DHT22;4703;48.748;19.142;2023-02-03T05:30:09;-0.30;99.90
9329;DHT22;4703;48.748;19.142;2023-02-03T05:32:36;-0.30;99.90
9329;DHT22;4703;48.748;19.142;2023-02-03T05:35:04;-0.30;99.90
9329;DHT22;4703;48.748;19.142;2023-02-03T05:37:31;-0.20;99.90
9329;DHT22;4703;48.748;19.142;2023-02-03T05:39:58;-0.30;99.90
9329;DHT22;4703;48.748;19.142;2023-02-03T05:42:48;-0.30;99.90
9329;DHT22;4703;48.748;19.142;2023-02-03T05:45:16;-0.30;99.90
9329;DHT22;4703;48.748;19.142;2023-02-03T05:47:43;-0.30;99.90
9329;DHT22;4703;48.748;19.142;2023-02-03T05:50:10;-0.40;99.90
9329;DHT22;4703;48.748;19.142;2023-02-03T05:52:37;-0.40;99.90
9329;DHT22;4703;48.748;19.142;2023-02-03T05:55:04;-0.30;99.90
9329;DHT22;4703;48.748;19.142;2023-02-03T05:57:31;-0.30;99.90
9329;DHT22;4703;48.748;19.142;2023-02-03T05:59:58;-0.30;99.90
9329;DHT22;4703;48.748;19.142;2023-02-03T06:02:25;-0.20;99.90
9329;DHT22;4703;48.748;19.142;2023-02-03T06:04:52;-0.20;99.90
9329;DHT22;4703;48.748;19.142;2023-02-03T06:07:19;-0.20;99.90
9329;DHT22;4703;48.748;19.142;2023-02-03T06:09:46;-0.20;99.90
9329;DHT22;4703;48.748;19.142;2023-02-03T06:12:14;-0.20;99.90
9329;DHT22;4703;48.748;19.142;2023-02-03T06:14:41;-0.30;99.90
9329;DHT22;4703;48.748;19.142;2023-02-03T06:17:08;-0.30;99.90
9329;DHT22;4703;48.748;19.142;2023-02-03T06:19:35;-0.20;99.90
9329;DHT22;4703;48.748;19.142;2023-02-03T06:22:02;-0.30;99.90
9329;DHT22;4703;48.748;19.142;2023-02-03T06:24:29;1.00;99.90
9329;DHT22;4703;48.748;19.142;2023-02-03T06:26:56;-0.30;99.90
9329;DHT22;4703;48.748;19.142;2023-02-03T06:29:23;-0.20;99.90
9329;DHT22;4703;48.748;19.142;2023-02-03T06:31:50;-0.30;99.90
9329;DHT22;4703;48.748;19.142;2023-02-03T06:34:17;-0.10;99.90
9329;DHT22;4703;48.748;19.142;2023-02-03T06:36:44;2.50;99.90
9329;DHT22;4703;48.748;19.142;2023-02-03T06:39:11;-0.10;99.90
9329;DHT22;4703;48.748;19.142;2023-02-03T06:41:37;-0.20;99.90
9329;DHT22;4703;48.748;19.142;2023-02-03T06:44:04;0.00;99.90
9329;DHT22;4703;48.748;19.142;2023-02-03T06:46:32;0.10;99.90
9329;DHT22;4703;48.748;19.142;2023-02-03T06:48:59;0.10;99.90
9329;DHT22;4703;48.748;19.142;2023-02-03T06:51:26;0.60;99.90
9329;DHT22;4703;48.748;19.142;2023-02-03T06:53:53;2.90;99.90
9329;DHT22;4703;48.748;19.142;2023-02-03T06:56:20;0.10;99.90
9329;DHT22;4703;48.748;19.142;2023-02-03T06:58:47;0.00;99.90
9329;DHT22;4703;48.748;19.142;2023-02-03T07:01:14;-0.10;99.90
9329;DHT22;4703;48.748;19.142;2023-02-03T07:03:42;0.00;99.90
9329;DHT22;4703;48.748;19.142;2023-02-03T07:06:09;0.40;99.90
9329;DHT22;4703;48.748;19.142;2023-02-03T07:08:36;0.10;99.90
9329;DHT22;4703;48.748;19.142;2023-02-03T07:11:03;0.20;99.90
9329;DHT22;4703;48.748;19.142;2023-02-03T07:13:30;0.20;99.90
9329;DHT22;4703;48.748;19.142;2023-02-03T07:15:57;0.20;99.90
9329;DHT22;4703;48.748;19.142;2023-02-03T07:18:24;0.20;99.90
9329;DHT22;4703;48.748;19.142;2023-02-03T07:21:12;0.20;99.90
9329;DHT22;4703;48.748;19.142;2023-02-03T07:23:40;1.90;99.90
9329;DHT22;4703;48.748;19.142;2023-02-03T07:26:09;0.30;99.90
9329;DHT22;4703;48.748;19.142;2023-02-03T07:28:36;0.40;99.90
9329;DHT22;4703;48.748;19.142;2023-02-03T07:31:03;0.40;99.90
9329;DHT22;4703;48.748;19.142;2023-02-03T07:33:30;0.60;99.90
9329;DHT22;4703;48.748;19.142;2023-02-03T07:35:58;0.50;99.90
9329;DHT22;4703;48.748;19.142;2023-02-03T07:38:26;0.50;99.90
9329;DHT22;4703;48.748;19.142;2023-02-03T07:40:54;0.60;99.90
9329;DHT22;4703;48.748;19.142;2023-02-03T07:43:22;0.60;99.50
9329;DHT22;4703;48.748;19.142;2023-02-03T07:45:49;0.70;99.30
9329;DHT22;4703;48.748;19.142;2023-02-03T07:48:16;0.70;99.40
9329;DHT22;4703;48.748;19.142;2023-02-03T07:50:43;0.70;99.40
9329;DHT22;4703;48.748;19.142;2023-02-03T07:53:11;0.80;99.10
9329;DHT22;4703;48.748;19.142;2023-02-03T07:55:38;0.70;99.00
9329;DHT22;4703;48.748;19.142;2023-02-03T07:58:06;0.70;98.80
9329;DHT22;4703;48.748;19.142;2023-02-03T08:00:33;1.70;99.20
9329;DHT22;4703;48.748;19.142;2023-02-03T08:03:01;0.80;98.40
9329;DHT22;4703;48.748;19.142;2023-02-03T08:05:28;0.90;98.60
9329;DHT22;4703;48.748;19.142;2023-02-03T08:07:56;0.80;98.30
9329;DHT22;4703;48.748;19.142;2023-02-03T08:10:23;0.80;98.60
9329;DHT22;4703;48.748;19.142;2023-02-03T08:12:54;0.80;99.00
9329;DHT22;4703;48.748;19.142;2023-02-03T08:15:21;0.90;98.80
9329;DHT22;4703;48.748;19.142;2023-02-03T08:17:49;0.90;97.90
9329;DHT22;4703;48.748;19.142;2023-02-03T08:20:17;0.90;97.80
9329;DHT22;4703;48.748;19.142;2023-02-03T08:22:44;3.00;98.60
9329;DHT22;4703;48.748;19.142;2023-02-03T08:25:11;0.90;97.90
9329;DHT22;4703;48.748;19.142;2023-02-03T08:27:39;0.80;97.90
9329;DHT22;4703;48.748;19.142;2023-02-03T08:30:10;1.00;97.70
9329;DHT22;4703;48.748;19.142;2023-02-03T08:32:38;0.90;97.80
9329;DHT22;4703;48.748;19.142;2023-02-03T08:35:05;0.90;97.90
9329;DHT22;4703;48.748;19.142;2023-02-03T08:37:33;1.00;98.10
9329;DHT22;4703;48.748;19.142;2023-02-03T08:40:00;1.00;97.90
9329;DHT22;4703;48.748;19.142;2023-02-03T08:42:27;1.00;97.60
9329;DHT22;4703;48.748;19.142;2023-02-03T08:44:54;1.00;97.60
9329;DHT22;4703;48.748;19.142;2023-02-03T08:47:21;1.00;97.80
9329;DHT22;4703;48.748;19.142;2023-02-03T08:49:48;0.90;97.80
9329;DHT22;4703;48.748;19.142;2023-02-03T08:52:15;1.00;97.80
9329;DHT22;4703;48.748;19.142;2023-02-03T08:54:45;0.90;97.90
9329;DHT22;4703;48.748;19.142;2023-02-03T08:57:13;0.90;98.00
9329;DHT22;4703;48.748;19.142;2023-02-03T08:59:42;1.00;98.00
9329;DHT22;4703;48.748;19.142;2023-02-03T09:02:14;1.00;98.50
9329;DHT22;4703;48.748;19.142;2023-02-03T09:04:43;0.90;99.10
9329;DHT22;4703;48.748;19.142;2023-02-03T09:07:11;0.90;99.70
9329;DHT22;4703;48.748;19.142;2023-02-03T09:09:39;1.00;99.90
9329;DHT22;4703;48.748;19.142;2023-02-03T09:12:06;1.00;99.90
9329;DHT22;4703;48.748;19.142;2023-02-03T09:14:33;0.90;99.90
9329;DHT22;4703;48.748;19.142;2023-02-03T09:17:01;1.00;99.90
9329;DHT22;4703;48.748;19.142;2023-02-03T09:19:29;1.00;99.90
9329;DHT22;4703;48.748;19.142;2023-02-03T09:21:57;0.90;99.90
9329;DHT22;4703;48.748;19.142;2023-02-03T09:24:24;1.00;99.90
9329;DHT22;4703;48.748;19.142;2023-02-03T09:26:51;0.90;99.90
9329;DHT22;4703;48.748;19.142;2023-02-03T09:29:18;3.30;99.90
9329;DHT22;4703;48.748;19.142;2023-02-03T09:31:47;0.90;99.90
9329;DHT22;4703;48.748;19.142;2023-02-03T09:34:14;1.00;99.90
9329;DHT22;4703;48.748;19.142;2023-02-03T09:36:41;1.00;99.90
9329;DHT22;4703;48.748;19.142;2023-02-03T09:39:08;1.00;99.90
9329;DHT22;4703;48.748;19.142;2023-02-03T09:44:36;1.00;99.90
9329;DHT22;4703;48.748;19.142;2023-02-03T09:47:33;1.10;99.90
9329;DHT22;4703;48.748;19.142;2023-02-03T09:50:06;1.00;99.90
9329;DHT22;4703;48.748;19.142;2023-02-03T09:52:41;1.10;99.90
9329;DHT22;4703;48.748;19.142;2023-02-03T09:55:26;1.00;99.90
9329;DHT22;4703;48.748;19.142;2023-02-03T09:58:13;1.00;99.90
9329;DHT22;4703;48.748;19.142;2023-02-03T10:01:00;1.00;99.90
9329;DHT22;4703;48.748;19.142;2023-02-03T10:06:32;1.10;99.90
9329;DHT22;4703;48.748;19.142;2023-02-03T10:17:39;1.10;99.90
9329;DHT22;4703;48.748;19.142;2023-02-03T10:20:17;1.00;99.90
9329;DHT22;4703;48.748;19.142;2023-02-03T10:22:51;1.00;99.90
9329;DHT22;4703;48.748;19.142;2023-02-03T10:25:39;1.10;99.90
9329;DHT22;4703;48.748;19.142;2023-02-03T10:28:20;1.10;99.90
9329;DHT22;4703;48.748;19.142;2023-02-03T10:30:59;1.10;99.90
9329;DHT22;4703;48.748;19.142;2023-02-03T10:33:30;1.10;99.90
9329;DHT22;4703;48.748;19.142;2023-02-03T10:36:21;1.10;99.90
9329;DHT22;4703;48.748;19.142;2023-02-03T10:41:43;1.20;99.90
9329;DHT22;4703;48.748;19.142;2023-02-03T10:44:12;1.10;99.90
9329;DHT22;4703;48.748;19.142;2023-02-03T10:46:40;1.20;99.90
9329;DHT22;4703;48.748;19.142;2023-02-03T10:49:11;1.00;99.90
9329;DHT22;4703;48.748;19.142;2023-02-03T10:51:47;1.00;99.90
9329;DHT22;4703;48.748;19.142;2023-02-03T10:54:31;0.90;99.90
9329;DHT22;4703;48.748;19.142;2023-02-03T10:57:05;0.90;99.90
9329;DHT22;4703;48.748;19.142;2023-02-03T10:59:43;0.90;99.90
9329;DHT22;4703;48.748;19.142;2023-02-03T11:02:29;0.90;99.90
9329;DHT22;4703;48.748;19.142;2023-02-03T11:07:42;1.90;99.90
9329;DHT22;4703;48.748;19.142;2023-02-03T11:13:20;0.90;99.90
9329;DHT22;4703;48.748;19.142;2023-02-03T11:21:21;0.90;99.90
9329;DHT22;4703;48.748;19.142;2023-02-03T11:24:02;0.90;99.90
9329;DHT22;4703;48.748;19.142;2023-02-03T11:26:44;0.90;99.90
9329;DHT22;4703;48.748;19.142;2023-02-03T11:29:26;0.80;99.90
9329;DHT22;4703;48.748;19.142;2023-02-03T11:32:02;0.90;99.90
9329;DHT22;4703;48.748;19.142;2023-02-03T11:34:34;0.90;99.90
9329;DHT22;4703;48.748;19.142;2023-02-03T11:37:32;0.90;99.90
9329;DHT22;4703;48.748;19.142;2023-02-03T11:42:35;1.00;99.90
9329;DHT22;4703;48.748;19.142;2023-02-03T11:45:36;1.00;99.90
9329;DHT22;4703;48.748;19.142;2023-02-03T11:48:27;0.90;99.90
9329;DHT22;4703;48.748;19.142;2023-02-03T12:00:19;1.00;99.90
9329;DHT22;4703;48.748;19.142;2023-02-03T12:03:28;1.10;99.90
9329;DHT22;4703;48.748;19.142;2023-02-03T12:09:56;1.10;99.90
9329;DHT22;4703;48.748;19.142;2023-02-03T12:22:14;1.10;99.90
9329;DHT22;4703;48.748;19.142;2023-02-03T12:31:38;1.10;99.90
9329;DHT22;4703;48.748;19.142;2023-02-03T12:37:08;1.10;99.90
9329;DHT22;4703;48.748;19.142;2023-02-03T12:39:54;1.00;99.90
9329;DHT22;4703;48.748;19.142;2023-02-03T12:42:45;1.00;99.90
9329;DHT22;4703;48.748;19.142;2023-02-03T12:45:29;1.00;99.90
9329;DHT22;4703;48.748;19.142;2023-02-03T12:48:03;1.00;99.90
9329;DHT22;4703;48.748;19.142;2023-02-03T12:50:44;0.90;99.90
9329;DHT22;4703;48.748;19.142;2023-02-03T12:53:23;1.00;99.90
9329;DHT22;4703;48.748;19.142;2023-02-03T12:56:06;0.90;99.90
9329;DHT22;4703;48.748;19.142;2023-02-03T12:58:46;0.90;99.90
9329;DHT22;4703;48.748;19.142;2023-02-03T13:01:36;2.40;99.90
9329;DHT22;4703;48.748;19.142;2023-02-03T13:07:03;0.90;99.90
9329;DHT22;4703;48.748;19.142;2023-02-03T13:09:54;0.70;99.90
9329;DHT22;4703;48.748;19.142;2023-02-03T13:20:55;0.90;99.90
9329;DHT22;4703;48.748;19.142;2023-02-03T13:23:23;0.80;99.90
9329;DHT22;4703;48.748;19.142;2023-02-03T13:34:51;0.80;99.90
9329;DHT22;4703;48.748;19.142;2023-02-03T13:41:18;0.80;99.90
9329;DHT22;4703;48.748;19.142;2023-02-03T13:43:50;0.80;99.90
9329;DHT22;4703;48.748;19.142;2023-02-03T13:46:27;0.70;99.90
9329;DHT22;4703;48.748;19.142;2023-02-03T13:48:59;0.70;99.90
9329;DHT22;4703;48.748;19.142;2023-02-03T13:51:43;0.70;99.90
9329;DHT22;4703;48.748;19.142;2023-02-03T13:54:16;0.70;99.90
9329;DHT22;4703;48.748;19.142;2023-02-03T13:57:00;0.60;99.90
9329;DHT22;4703;48.748;19.142;2023-02-03T14:07:35;0.60;99.90
9329;DHT22;4703;48.748;19.142;2023-02-03T14:10:20;0.70;99.90
9329;DHT22;4703;48.748;19.142;2023-02-03T14:18:04;0.60;99.90
9329;DHT22;4703;48.748;19.142;2023-02-03T14:21:08;2.80;99.90
9329;DHT22;4703;48.748;19.142;2023-02-03T14:23:44;0.50;99.90
9329;DHT22;4703;48.748;19.142;2023-02-03T14:26:31;0.50;99.90
9329;DHT22;4703;48.748;19.142;2023-02-03T14:29:01;0.50;99.90
9329;DHT22;4703;48.748;19.142;2023-02-03T14:31:28;0.40;99.90
9329;DHT22;4703;48.748;19.142;2023-02-03T14:34:02;0.50;99.90
9329;DHT22;4703;48.748;19.142;2023-02-03T14:36:45;0.50;99.90
9329;DHT22;4703;48.748;19.142;2023-02-03T14:50:17;0.40;99.90
9329;DHT22;4703;48.748;19.142;2023-02-03T14:58:39;0.60;99.90
9329;DHT22;4703;48.748;19.142;2023-02-03T15:01:26;0.40;99.90
9329;DHT22;4703;48.748;19.142;2023-02-03T15:06:50;0.30;99.90
9329;DHT22;4703;48.748;19.142;2023-02-03T15:12:21;0.20;99.90
9329;DHT22;4703;48.748;19.142;2023-02-03T15:14:49;0.20;99.90
9329;DHT22;4703;48.748;19.142;2023-02-03T15:17:25;0.20;99.90
9329;DHT22;4703;48.748;19.142;2023-02-03T15:19:53;0.20;99.90
9329;DHT22;4703;48.748;19.142;2023-02-03T15:22:26;0.20;99.90
9329;DHT22;4703;48.748;19.142;2023-02-03T15:24:59;0.30;99.90
9329;DHT22;4703;48.748;19.142;2023-02-03T15:27:31;0.20;99.90
9329;DHT22;4703;48.748;19.142;2023-02-03T15:30:17;0.20;99.90
9329;DHT22;4703;48.748;19.142;2023-02-03T15:33:00;0.30;99.90
9329;DHT22;4703;48.748;19.142;2023-02-03T15:35:34;0.30;99.90
9329;DHT22;4703;48.748;19.142;2023-02-03T15:38:05;0.20;99.90
9329;DHT22;4703;48.748;19.142;2023-02-03T15:40:49;0.20;99.90
9329;DHT22;4703;48.748;19.142;2023-02-03T15:43:24;0.30;99.90
9329;DHT22;4703;48.748;19.142;2023-02-03T15:49:10;0.20;99.90
9329;DHT22;4703;48.748;19.142;2023-02-03T15:51:48;0.20;99.90
9329;DHT22;4703;48.748;19.142;2023-02-03T15:54:31;0.20;99.90
9329;DHT22;4703;48.748;19.142;2023-02-03T15:57:09;0.20;99.90
9329;DHT22;4703;48.748;19.142;2023-02-03T16:00:21;0.20;99.90
9329;DHT22;4703;48.748;19.142;2023-02-03T16:03:02;0.20;99.90
9329;DHT22;4703;48.748;19.142;2023-02-03T16:05:33;0.20;99.90
9329;DHT22;4703;48.748;19.142;2023-02-03T16:11:37;0.20;99.90
9329;DHT22;4703;48.748;19.142;2023-02-03T16:14:06;0.20;99.90
9329;DHT22;4703;48.748;19.142;2023-02-03T16:16:40;0.10;99.90
9329;DHT22;4703;48.748;19.142;2023-02-03T16:19:31;0.20;99.90
9329;DHT22;4703;48.748;19.142;2023-02-03T16:21:59;0.10;99.90
9329;DHT22;4703;48.748;19.142;2023-02-03T16:24:41;2.10;99.90
9329;DHT22;4703;48.748;19.142;2023-02-03T16:33:09;0.20;99.90
9329;DHT22;4703;48.748;19.142;2023-02-03T16:36:10;0.20;99.90
9329;DHT22;4703;48.748;19.142;2023-02-03T16:39:00;0.10;99.90
9329;DHT22;4703;48.748;19.142;2023-02-03T16:41:47;0.10;99.90
9329;DHT22;4703;48.748;19.142;2023-02-03T16:44:32;0.20;99.90
9329;DHT22;4703;48.748;19.142;2023-02-03T16:47:27;0.20;99.90
9329;DHT22;4703;48.748;19.142;2023-02-03T16:50:16;0.20;99.90
9329;DHT22;4703;48.748;19.142;2023-02-03T16:53:10;0.10;99.90
9329;DHT22;4703;48.748;19.142;2023-02-03T16:55:39;0.20;99.90
9329;DHT22;4703;48.748;19.142;2023-02-03T16:58:06;0.20;99.90
9329;DHT22;4703;48.748;19.142;2023-02-03T17:00:34;0.20;99.90
9329;DHT22;4703;48.748;19.142;2023-02-03T17:03:04;0.20;99.90
9329;DHT22;4703;48.748;19.142;2023-02-03T17:05:36;1.10;99.90
9329;DHT22;4703;48.748;19.142;2023-02-03T17:08:04;0.20;99.90
9329;DHT22;4703;48.748;19.142;2023-02-03T17:10:33;2.20;99.90
9329;DHT22;4703;48.748;19.142;2023-02-03T17:13:01;0.10;99.90
9329;DHT22;4703;48.748;19.142;2023-02-03T17:15:28;0.10;99.90
9329;DHT22;4703;48.748;19.142;2023-02-03T17:17:57;0.10;99.90
9329;DHT22;4703;48.748;19.142;2023-02-03T17:20:24;0.00;99.90
9329;DHT22;4703;48.748;19.142;2023-02-03T17:22:51;0.10;99.90
9329;DHT22;4703;48.748;19.142;2023-02-03T17:25:20;0.10;99.90
9329;DHT22;4703;48.748;19.142;2023-02-03T17:27:47;0.10;99.90
9329;DHT22;4703;48.748;19.142;2023-02-03T17:30:14;0.10;99.90
9329;DHT22;4703;48.748;19.142;2023-02-03T17:32:41;0.20;99.90
9329;DHT22;4703;48.748;19.142;2023-02-03T17:35:08;0.20;99.90
9329;DHT22;4703;48.748;19.142;2023-02-03T17:37:35;0.20;99.90
9329;DHT22;4703;48.748;19.142;2023-02-03T17:40:03;0.10;99.90
9329;DHT22;4703;48.748;19.142;2023-02-03T17:42:47;0.10;99.90
9329;DHT22;4703;48.748;19.142;2023-02-03T17:45:32;0.10;99.90
9329;DHT22;4703;48.748;19.142;2023-02-03T17:48:17;0.10;99.90
9329;DHT22;4703;48.748;19.142;2023-02-03T17:51:21;0.10;99.90
9329;DHT22;4703;48.748;19.142;2023-02-03T17:54:10;2.00;99.90
9329;DHT22;4703;48.748;19.142;2023-02-03T17:56:37;0.10;99.90
9329;DHT22;4703;48.748;19.142;2023-02-03T17:59:05;0.10;99.90
9329;DHT22;4703;48.748;19.142;2023-02-03T18:01:32;0.10;99.90
9329;DHT22;4703;48.748;19.142;2023-02-03T18:04:01;0.10;99.90
9329;DHT22;4703;48.748;19.142;2023-02-03T18:06:31;0.10;99.90
9329;DHT22;4703;48.748;19.142;2023-02-03T18:09:02;0.20;99.90
9329;DHT22;4703;48.748;19.142;2023-02-03T18:11:32;0.20;99.90
9329;DHT22;4703;48.748;19.142;2023-02-03T18:14:00;0.10;99.90
9329;DHT22;4703;48.748;19.142;2023-02-03T18:16:29;0.20;99.90
9329;DHT22;4703;48.748;19.142;2023-02-03T18:19:05;0.20;99.90
9329;DHT22;4703;48.748;19.142;2023-02-03T18:21:36;0.20;99.90
9329;DHT22;4703;48.748;19.142;2023-02-03T18:24:03;0.20;99.90
9329;DHT22;4703;48.748;19.142;2023-02-03T18:26:33;0.20;99.90
9329;DHT22;4703;48.748;19.142;2023-02-03T18:29:03;0.20;99.90
9329;DHT22;4703;48.748;19.142;2023-02-03T18:31:31;0.20;99.90
9329;DHT22;4703;48.748;19.142;2023-02-03T18:34:02;0.10;99.90
9329;DHT22;4703;48.748;19.142;2023-02-03T18:36:31;0.10;99.90
9329;DHT22;4703;48.748;19.142;2023-02-03T18:38:58;0.10;99.90
9329;DHT22;4703;48.748;19.142;2023-02-03T18:41:25;0.20;99.90
9329;DHT22;4703;48.748;19.142;2023-02-03T18:43:52;0.10;99.90
9329;DHT22;4703;48.748;19.142;2023-02-03T18:46:25;0.20;99.90
9329;DHT22;4703;48.748;19.142;2023-02-03T18:48:53;2.60;99.90
9329;DHT22;4703;48.748;19.142;2023-02-03T18:51:23;0.20;99.90
9329;DHT22;4703;48.748;19.142;2023-02-03T18:53:51;0.10;99.90
9329;DHT22;4703;48.748;19.142;2023-02-03T18:56:24;0.10;99.90
9329;DHT22;4703;48.748;19.142;2023-02-03T18:58:52;0.10;99.90
9329;DHT22;4703;48.748;19.142;2023-02-03T19:01:27;0.00;99.90
9329;DHT22;4703;48.748;19.142;2023-02-03T19:03:57;1.10;99.90
9329;DHT22;4703;48.748;19.142;2023-02-03T19:06:26;2.50;99.90
9329;DHT22;4703;48.748;19.142;2023-02-03T19:08:57;0.20;99.90
9329;DHT22;4703;48.748;19.142;2023-02-03T19:11:25;0.00;99.90
9329;DHT22;4703;48.748;19.142;2023-02-03T19:13:52;3.20;99.90